sensor_id;sensor_type;location;lat;lon;timestamp;P1;durP1;ratioP1;P2;durP2;ratioP2
26594;SDS011;14238;49.496;8.154;2023-03-23T00:00:03;0.80;;;0.80;;
26594;SDS011;14238;49.496;8.154;2023-03-23T00:02:33;1.00;;;1.00;;
26594;SDS011;14238;49.496;8.154;2023-03-23T00:05:00;1.30;;;1.10;;
26594;SDS011;14238;49.496;8.154;2023-03-23T00:07:28;0.90;;;0.90;;
26594;SDS011;14238;49.496;8.154;2023-03-23T00:09:54;0.90;;;0.90;;
26594;SDS011;14238;49.496;8.154;2023-03-23T00:12:21;1.60;;;1.20;;
26594;SDS011;14238;49.496;8.154;2023-03-23T00:14:53;1.37;;;1.27;;
26594;SDS011;14238;49.496;8.154;2023-03-23T00:17:22;1.27;;;1.23;;
26594;SDS011;14238;49.496;8.154;2023-03-23T00:19:48;0.87;;;0.70;;
26594;SDS011;14238;49.496;8.154;2023-03-23T00:22:14;1.40;;;1.10;;
26594;SDS011;14238;49.496;8.154;2023-03-23T00:24:45;0.93;;;0.90;;
26594;SDS011;14238;49.496;8.154;2023-03-23T00:27:12;0.90;;;0.90;;
26594;SDS011;14238;49.496;8.154;2023-03-23T00:29:39;1.40;;;1.30;;
26594;SDS011;14238;49.496;8.154;2023-03-23T00:32:05;1.20;;;1.20;;
26594;SDS011;14238;49.496;8.154;2023-03-23T00:34:31;1.70;;;1.60;;
26594;SDS011;14238;49.496;8.154;2023-03-23T00:36:59;0.90;;;0.90;;
26594;SDS011;14238;49.496;8.154;2023-03-23T00:39:26;1.63;;;1.13;;
26594;SDS011;14238;49.496;8.154;2023-03-23T00:41:52;1.30;;;1.23;;
26594;SDS011;14238;49.496;8.154;2023-03-23T00:44:25;1.20;;;1.20;;
26594;SDS011;14238;49.496;8.154;2023-03-23T00:46:55;1.07;;;1.07;;
26594;SDS011;14238;49.496;8.154;2023-03-23T00:49:21;1.63;;;1.20;;
26594;SDS011;14238;49.496;8.154;2023-03-23T00:51:51;1.30;;;0.97;;
26594;SDS011;14238;49.496;8.154;2023-03-23T00:54:18;1.20;;;1.20;;
26594;SDS011;14238;49.496;8.154;2023-03-23T00:56:44;0.90;;;0.90;;
26594;SDS011;14238;49.496;8.154;2023-03-23T00:59:10;1.20;;;1.20;;
26594;SDS011;14238;49.496;8.154;2023-03-23T01:01:35;1.13;;;1.13;;
26594;SDS011;14238;49.496;8.154;2023-03-23T01:04:01;0.90;;;0.90;;
26594;SDS011;14238;49.496;8.154;2023-03-23T01:06:28;1.23;;;1.20;;
26594;SDS011;14238;49.496;8.154;2023-03-23T01:09:00;1.33;;;1.33;;
26594;SDS011;14238;49.496;8.154;2023-03-23T01:11:27;1.27;;;1.20;;
26594;SDS011;14238;49.496;8.154;2023-03-23T01:13:53;0.90;;;0.90;;
26594;SDS011;14238;49.496;8.154;2023-03-23T01:16:20;1.23;;;1.10;;
26594;SDS011;14238;49.496;8.154;2023-03-23T01:18:46;4.00;;;1.40;;
26594;SDS011;14238;49.496;8.154;2023-03-23T01:21:12;1.50;;;1.40;;
26594;SDS011;14238;49.496;8.154;2023-03-23T01:23:40;1.10;;;1.00;;
26594;SDS011;14238;49.496;8.154;2023-03-23T01:26:10;1.00;;;1.00;;
26594;SDS011;14238;49.496;8.154;2023-03-23T01:28:37;1.00;;;1.00;;
26594;SDS011;14238;49.496;8.154;2023-03-23T01:31:04;1.00;;;1.00;;
26594;SDS011;14238;49.496;8.154;2023-03-23T01:33:32;1.10;;;1.10;;
26594;SDS011;14238;49.496;8.154;2023-03-23T01:36:02;1.47;;;1.37;;
26594;SDS011;14238;49.496;8.154;2023-03-23T01:38:29;1.33;;;1.23;;
26594;SDS011;14238;49.496;8.154;2023-03-23T01:40:54;2.00;;;1.43;;
26594;SDS011;14238;49.496;8.154;2023-03-23T01:43:20;1.90;;;1.80;;
26594;SDS011;14238;49.496;8.154;2023-03-23T01:45:45;1.10;;;1.10;;
26594;SDS011;14238;49.496;8.154;2023-03-23T01:48:32;1.70;;;1.60;;
26594;SDS011;14238;49.496;8.154;2023-03-23T01:51:02;1.47;;;1.20;;
26594;SDS011;14238;49.496;8.154;2023-03-23T01:53:34;1.27;;;1.20;;
26594;SDS011;14238;49.496;8.154;2023-03-23T01:56:03;1.30;;;1.30;;
26594;SDS011;14238;49.496;8.154;2023-03-23T01:58:31;1.10;;;1.00;;
26594;SDS011;14238;49.496;8.154;2023-03-23T02:00:59;1.30;;;1.30;;
26594;SDS011;14238;49.496;8.154;2023-03-23T02:03:29;2.30;;;1.40;;
26594;SDS011;14238;49.496;8.154;2023-03-23T02:05:56;1.43;;;1.33;;
26594;SDS011;14238;49.496;8.154;2023-03-23T02:08:28;1.23;;;1.13;;
26594;SDS011;14238;49.496;8.154;2023-03-23T02:10:57;1.37;;;1.27;;
26594;SDS011;14238;49.496;8.154;2023-03-23T02:13:22;1.27;;;1.20;;
26594;SDS011;14238;49.496;8.154;2023-03-23T02:18:27;1.10;;;1.10;;
26594;SDS011;14238;49.496;8.154;2023-03-23T02:21:09;1.10;;;1.10;;
26594;SDS011;14238;49.496;8.154;2023-03-23T02:26:59;1.10;;;1.10;;
26594;SDS011;14238;49.496;8.154;2023-03-23T02:35:35;1.30;;;1.30;;
26594;SDS011;14238;49.496;8.154;2023-03-23T02:38:06;1.20;;;1.10;;
26594;SDS011;14238;49.496;8.154;2023-03-23T02:40:42;1.63;;;1.53;;
26594;SDS011;14238;49.496;8.154;2023-03-23T02:43:13;1.23;;;1.23;;
26594;SDS011;14238;49.496;8.154;2023-03-23T02:45:43;2.40;;;1.50;;
26594;SDS011;14238;49.496;8.154;2023-03-23T02:48:10;1.67;;;1.57;;
26594;SDS011;14238;49.496;8.154;2023-03-23T02:50:38;1.43;;;1.33;;
26594;SDS011;14238;49.496;8.154;2023-03-23T02:53:07;1.30;;;1.30;;
26594;SDS011;14238;49.496;8.154;2023-03-23T02:55:36;1.70;;;1.60;;
26594;SDS011;14238;49.496;8.154;2023-03-23T02:58:07;1.73;;;1.57;;
26594;SDS011;14238;49.496;8.154;2023-03-23T03:00:36;1.33;;;1.23;;
26594;SDS011;14238;49.496;8.154;2023-03-23T03:03:03;1.20;;;1.20;;
26594;SDS011;14238;49.496;8.154;2023-03-23T03:05:35;1.60;;;1.30;;
26594;SDS011;14238;49.496;8.154;2023-03-23T03:11:10;2.00;;;1.90;;
26594;SDS011;14238;49.496;8.154;2023-03-23T03:13:45;2.77;;;2.57;;
26594;SDS011;14238;49.496;8.154;2023-03-23T03:19:11;3.23;;;3.03;;
26594;SDS011;14238;49.496;8.154;2023-03-23T03:21:41;3.37;;;3.17;;
26594;SDS011;14238;49.496;8.154;2023-03-23T03:24:09;2.80;;;2.30;;
26594;SDS011;14238;49.496;8.154;2023-03-23T03:26:40;1.63;;;1.53;;
26594;SDS011;14238;49.496;8.154;2023-03-23T03:29:13;1.73;;;1.63;;
26594;SDS011;14238;49.496;8.154;2023-03-23T03:31:42;1.60;;;1.50;;
26594;SDS011;14238;49.496;8.154;2023-03-23T03:34:11;1.87;;;1.77;;
26594;SDS011;14238;49.496;8.154;2023-03-23T03:36:42;1.47;;;1.47;;
26594;SDS011;14238;49.496;8.154;2023-03-23T03:39:11;1.87;;;1.50;;
26594;SDS011;14238;49.496;8.154;2023-03-23T03:41:39;1.50;;;1.40;;
26594;SDS011;14238;49.496;8.154;2023-03-23T03:44:06;1.57;;;1.47;;
26594;SDS011;14238;49.496;8.154;2023-03-23T03:46:32;2.30;;;1.60;;
26594;SDS011;14238;49.496;8.154;2023-03-23T03:48:59;1.30;;;1.30;;
26594;SDS011;14238;49.496;8.154;2023-03-23T03:51:27;1.33;;;1.10;;
26594;SDS011;14238;49.496;8.154;2023-03-23T03:53:54;1.53;;;1.40;;
26594;SDS011;14238;49.496;8.154;2023-03-23T03:56:20;1.50;;;1.40;;
26594;SDS011;14238;49.496;8.154;2023-03-23T03:58:47;1.23;;;1.10;;
26594;SDS011;14238;49.496;8.154;2023-03-23T04:01:13;1.40;;;1.40;;
26594;SDS011;14238;49.496;8.154;2023-03-23T04:03:40;1.50;;;1.40;;
26594;SDS011;14238;49.496;8.154;2023-03-23T04:06:06;1.80;;;1.70;;
26594;SDS011;14238;49.496;8.154;2023-03-23T04:08:33;1.60;;;1.43;;
26594;SDS011;14238;49.496;8.154;2023-03-23T04:10:59;1.70;;;1.60;;
26594;SDS011;14238;49.496;8.154;2023-03-23T04:13:25;1.70;;;1.40;;
26594;SDS011;14238;49.496;8.154;2023-03-23T04:15:50;1.40;;;1.30;;
26594;SDS011;14238;49.496;8.154;2023-03-23T04:18:16;1.73;;;1.63;;
26594;SDS011;14238;49.496;8.154;2023-03-23T04:20:45;1.90;;;1.80;;
26594;SDS011;14238;49.496;8.154;2023-03-23T04:23:14;1.40;;;1.40;;
26594;SDS011;14238;49.496;8.154;2023-03-23T04:25:44;1.63;;;1.50;;
26594;SDS011;14238;49.496;8.154;2023-03-23T04:28:11;1.63;;;1.53;;
26594;SDS011;14238;49.496;8.154;2023-03-23T04:30:37;1.77;;;1.67;;
26594;SDS011;14238;49.496;8.154;2023-03-23T04:33:03;1.57;;;1.43;;
26594;SDS011;14238;49.496;8.154;2023-03-23T04:35:29;2.33;;;1.57;;
26594;SDS011;14238;49.496;8.154;2023-03-23T04:37:55;1.60;;;1.50;;
26594;SDS011;14238;49.496;8.154;2023-03-23T04:40:21;1.90;;;1.80;;
26594;SDS011;14238;49.496;8.154;2023-03-23T04:42:47;2.00;;;1.90;;
26594;SDS011;14238;49.496;8.154;2023-03-23T04:45:18;1.93;;;1.73;;
26594;SDS011;14238;49.496;8.154;2023-03-23T04:47:46;1.63;;;1.53;;
26594;SDS011;14238;49.496;8.154;2023-03-23T04:50:18;2.03;;;1.93;;
26594;SDS011;14238;49.496;8.154;2023-03-23T04:52:45;1.80;;;1.70;;
26594;SDS011;14238;49.496;8.154;2023-03-23T04:55:12;2.83;;;2.60;;
26594;SDS011;14238;49.496;8.154;2023-03-23T04:57:38;2.10;;;1.90;;
26594;SDS011;14238;49.496;8.154;2023-03-23T05:00:04;2.30;;;2.10;;
26594;SDS011;14238;49.496;8.154;2023-03-23T05:02:37;2.30;;;2.10;;
26594;SDS011;14238;49.496;8.154;2023-03-23T05:05:06;1.90;;;1.80;;
26594;SDS011;14238;49.496;8.154;2023-03-23T05:07:33;2.70;;;2.50;;
26594;SDS011;14238;49.496;8.154;2023-03-23T05:09:59;2.70;;;2.50;;
26594;SDS011;14238;49.496;8.154;2023-03-23T05:12:25;2.40;;;2.30;;
26594;SDS011;14238;49.496;8.154;2023-03-23T05:14:51;2.20;;;2.10;;
26594;SDS011;14238;49.496;8.154;2023-03-23T05:17:17;2.13;;;2.03;;
26594;SDS011;14238;49.496;8.154;2023-03-23T05:19:43;2.90;;;2.60;;
26594;SDS011;14238;49.496;8.154;2023-03-23T05:22:12;2.43;;;2.33;;
26594;SDS011;14238;49.496;8.154;2023-03-23T05:24:39;2.57;;;2.37;;
26594;SDS011;14238;49.496;8.154;2023-03-23T05:27:05;2.57;;;2.47;;
26594;SDS011;14238;49.496;8.154;2023-03-23T05:29:32;2.70;;;2.33;;
26594;SDS011;14238;49.496;8.154;2023-03-23T05:32:00;2.73;;;2.63;;
26594;SDS011;14238;49.496;8.154;2023-03-23T05:34:27;2.93;;;2.73;;
26594;SDS011;14238;49.496;8.154;2023-03-23T05:36:53;2.00;;;1.90;;
26594;SDS011;14238;49.496;8.154;2023-03-23T05:39:20;2.50;;;2.40;;
26594;SDS011;14238;49.496;8.154;2023-03-23T05:41:46;2.33;;;2.07;;
26594;SDS011;14238;49.496;8.154;2023-03-23T05:44:12;3.10;;;2.40;;
26594;SDS011;14238;49.496;8.154;2023-03-23T05:46:38;2.13;;;2.03;;
26594;SDS011;14238;49.496;8.154;2023-03-23T05:49:04;1.90;;;1.80;;
26594;SDS011;14238;49.496;8.154;2023-03-23T05:51:30;5.10;;;2.53;;
26594;SDS011;14238;49.496;8.154;2023-03-23T05:53:56;2.43;;;2.17;;
26594;SDS011;14238;49.496;8.154;2023-03-23T05:56:22;2.30;;;2.20;;
26594;SDS011;14238;49.496;8.154;2023-03-23T05:58:48;2.60;;;2.40;;
26594;SDS011;14238;49.496;8.154;2023-03-23T06:01:13;2.07;;;1.97;;
26594;SDS011;14238;49.496;8.154;2023-03-23T06:03:39;2.20;;;1.93;;
26594;SDS011;14238;49.496;8.154;2023-03-23T06:06:05;2.27;;;2.17;;
26594;SDS011;14238;49.496;8.154;2023-03-23T06:08:30;2.40;;;2.30;;
26594;SDS011;14238;49.496;8.154;2023-03-23T06:10:56;1.90;;;1.80;;
26594;SDS011;14238;49.496;8.154;2023-03-23T06:13:22;2.20;;;2.10;;
26594;SDS011;14238;49.496;8.154;2023-03-23T06:15:48;2.40;;;2.03;;
26594;SDS011;14238;49.496;8.154;2023-03-23T06:18:14;2.00;;;1.90;;
26594;SDS011;14238;49.496;8.154;2023-03-23T06:20:40;1.93;;;1.83;;
26594;SDS011;14238;49.496;8.154;2023-03-23T06:23:08;2.27;;;2.00;;
26594;SDS011;14238;49.496;8.154;2023-03-23T06:25:34;2.10;;;2.00;;
26594;SDS011;14238;49.496;8.154;2023-03-23T06:27:59;2.43;;;2.20;;
26594;SDS011;14238;49.496;8.154;2023-03-23T06:30:25;2.30;;;2.10;;
26594;SDS011;14238;49.496;8.154;2023-03-23T06:32:52;2.20;;;2.00;;
26594;SDS011;14238;49.496;8.154;2023-03-23T06:35:17;2.07;;;1.97;;
26594;SDS011;14238;49.496;8.154;2023-03-23T06:37:43;3.80;;;2.00;;
26594;SDS011;14238;49.496;8.154;2023-03-23T06:40:09;2.40;;;2.20;;
26594;SDS011;14238;49.496;8.154;2023-03-23T06:42:35;2.67;;;2.00;;
26594;SDS011;14238;49.496;8.154;2023-03-23T06:45:01;2.70;;;2.50;;
26594;SDS011;14238;49.496;8.154;2023-03-23T06:47:27;2.23;;;2.03;;
26594;SDS011;14238;49.496;8.154;2023-03-23T06:49:56;2.10;;;2.00;;
26594;SDS011;14238;49.496;8.154;2023-03-23T06:52:22;2.07;;;1.97;;
26594;SDS011;14238;49.496;8.154;2023-03-23T06:54:49;2.27;;;2.07;;
26594;SDS011;14238;49.496;8.154;2023-03-23T06:57:15;2.40;;;2.30;;
26594;SDS011;14238;49.496;8.154;2023-03-23T06:59:41;2.53;;;2.33;;
26594;SDS011;14238;49.496;8.154;2023-03-23T07:02:08;2.10;;;2.00;;
26594;SDS011;14238;49.496;8.154;2023-03-23T07:04:36;2.50;;;2.40;;
26594;SDS011;14238;49.496;8.154;2023-03-23T07:07:02;2.50;;;1.97;;
26594;SDS011;14238;49.496;8.154;2023-03-23T07:09:28;2.10;;;1.97;;
26594;SDS011;14238;49.496;8.154;2023-03-23T07:11:53;2.70;;;2.50;;
26594;SDS011;14238;49.496;8.154;2023-03-23T07:14:19;2.20;;;2.10;;
26594;SDS011;14238;49.496;8.154;2023-03-23T07:16:46;2.30;;;2.10;;
26594;SDS011;14238;49.496;8.154;2023-03-23T07:19:12;3.33;;;2.10;;
26594;SDS011;14238;49.496;8.154;2023-03-23T07:21:37;3.23;;;1.90;;
26594;SDS011;14238;49.496;8.154;2023-03-23T07:24:03;2.27;;;2.10;;
26594;SDS011;14238;49.496;8.154;2023-03-23T07:26:29;2.10;;;2.00;;
26594;SDS011;14238;49.496;8.154;2023-03-23T07:28:54;1.93;;;1.83;;
26594;SDS011;14238;49.496;8.154;2023-03-23T07:31:20;1.60;;;1.53;;
26594;SDS011;14238;49.496;8.154;2023-03-23T07:33:45;1.60;;;1.50;;
26594;SDS011;14238;49.496;8.154;2023-03-23T07:36:11;1.50;;;1.40;;
26594;SDS011;14238;49.496;8.154;2023-03-23T07:38:37;1.90;;;1.80;;
26594;SDS011;14238;49.496;8.154;2023-03-23T07:41:03;1.50;;;1.50;;
26594;SDS011;14238;49.496;8.154;2023-03-23T07:43:29;1.90;;;1.70;;
26594;SDS011;14238;49.496;8.154;2023-03-23T07:45:55;1.80;;;1.70;;
26594;SDS011;14238;49.496;8.154;2023-03-23T07:48:21;1.73;;;1.63;;
26594;SDS011;14238;49.496;8.154;2023-03-23T07:50:47;2.03;;;1.93;;
26594;SDS011;14238;49.496;8.154;2023-03-23T07:53:12;2.10;;;2.00;;
26594;SDS011;14238;49.496;8.154;2023-03-23T07:55:38;1.77;;;1.67;;
26594;SDS011;14238;49.496;8.154;2023-03-23T07:58:04;2.20;;;2.10;;
26594;SDS011;14238;49.496;8.154;2023-03-23T08:00:29;1.37;;;1.37;;
26594;SDS011;14238;49.496;8.154;2023-03-23T08:02:55;2.00;;;1.83;;
26594;SDS011;14238;49.496;8.154;2023-03-23T08:05:22;1.97;;;1.73;;
26594;SDS011;14238;49.496;8.154;2023-03-23T08:07:50;1.90;;;1.80;;
26594;SDS011;14238;49.496;8.154;2023-03-23T08:10:16;2.20;;;1.83;;
26594;SDS011;14238;49.496;8.154;2023-03-23T08:12:43;3.37;;;2.10;;
26594;SDS011;14238;49.496;8.154;2023-03-23T08:15:10;2.17;;;1.97;;
26594;SDS011;14238;49.496;8.154;2023-03-23T08:17:40;2.37;;;2.20;;
26594;SDS011;14238;49.496;8.154;2023-03-23T08:20:06;1.93;;;1.83;;
26594;SDS011;14238;49.496;8.154;2023-03-23T08:22:38;1.53;;;1.43;;
26594;SDS011;14238;49.496;8.154;2023-03-23T08:25:05;1.87;;;1.77;;
26594;SDS011;14238;49.496;8.154;2023-03-23T08:27:32;2.33;;;2.23;;
26594;SDS011;14238;49.496;8.154;2023-03-23T08:29:57;2.20;;;2.00;;
26594;SDS011;14238;49.496;8.154;2023-03-23T08:32:24;1.60;;;1.57;;
26594;SDS011;14238;49.496;8.154;2023-03-23T08:34:50;2.00;;;1.90;;
26594;SDS011;14238;49.496;8.154;2023-03-23T08:37:16;2.33;;;1.60;;
26594;SDS011;14238;49.496;8.154;2023-03-23T08:39:42;1.70;;;1.50;;
26594;SDS011;14238;49.496;8.154;2023-03-23T08:42:09;2.27;;;2.07;;
26594;SDS011;14238;49.496;8.154;2023-03-23T08:44:35;2.73;;;1.83;;
26594;SDS011;14238;49.496;8.154;2023-03-23T08:47:01;2.00;;;1.90;;
26594;SDS011;14238;49.496;8.154;2023-03-23T08:49:28;1.90;;;1.73;;
26594;SDS011;14238;49.496;8.154;2023-03-23T08:51:57;2.03;;;1.93;;
26594;SDS011;14238;49.496;8.154;2023-03-23T08:54:23;2.10;;;1.60;;
26594;SDS011;14238;49.496;8.154;2023-03-23T08:56:49;1.53;;;1.43;;
26594;SDS011;14238;49.496;8.154;2023-03-23T08:59:14;1.67;;;1.57;;
26594;SDS011;14238;49.496;8.154;2023-03-23T09:01:40;1.73;;;1.63;;
26594;SDS011;14238;49.496;8.154;2023-03-23T09:04:06;1.43;;;1.33;;
26594;SDS011;14238;49.496;8.154;2023-03-23T09:06:34;1.27;;;1.27;;
26594;SDS011;14238;49.496;8.154;2023-03-23T09:09:01;1.43;;;1.33;;
26594;SDS011;14238;49.496;8.154;2023-03-23T09:11:31;1.17;;;1.17;;
26594;SDS011;14238;49.496;8.154;2023-03-23T09:14:00;1.70;;;1.47;;
26594;SDS011;14238;49.496;8.154;2023-03-23T09:16:27;1.77;;;1.30;;
26594;SDS011;14238;49.496;8.154;2023-03-23T09:18:53;1.50;;;1.40;;
26594;SDS011;14238;49.496;8.154;2023-03-23T09:21:20;1.13;;;1.07;;
26594;SDS011;14238;49.496;8.154;2023-03-23T09:23:46;1.73;;;1.10;;
26594;SDS011;14238;49.496;8.154;2023-03-23T09:26:13;5.53;;;1.80;;
26594;SDS011;14238;49.496;8.154;2023-03-23T09:28:39;1.73;;;1.63;;
26594;SDS011;14238;49.496;8.154;2023-03-23T09:31:05;1.77;;;1.63;;
26594;SDS011;14238;49.496;8.154;2023-03-23T09:33:30;1.67;;;1.57;;
26594;SDS011;14238;49.496;8.154;2023-03-23T09:35:59;2.13;;;2.03;;
26594;SDS011;14238;49.496;8.154;2023-03-23T09:38:27;2.00;;;1.60;;
26594;SDS011;14238;49.496;8.154;2023-03-23T09:40:55;1.87;;;1.77;;
26594;SDS011;14238;49.496;8.154;2023-03-23T09:43:52;1.57;;;1.47;;
26594;SDS011;14238;49.496;8.154;2023-03-23T09:46:53;1.63;;;1.40;;
26594;SDS011;14238;49.496;8.154;2023-03-23T09:49:33;2.00;;;1.90;;
26594;SDS011;14238;49.496;8.154;2023-03-23T09:52:14;2.00;;;1.90;;
26594;SDS011;14238;49.496;8.154;2023-03-23T09:54:46;1.80;;;1.70;;
26594;SDS011;14238;49.496;8.154;2023-03-23T10:02:43;1.80;;;1.70;;
26594;SDS011;14238;49.496;8.154;2023-03-23T10:05:34;1.93;;;1.70;;
26594;SDS011;14238;49.496;8.154;2023-03-23T10:08:17;1.50;;;1.50;;
26594;SDS011;14238;49.496;8.154;2023-03-23T10:16:23;1.60;;;1.50;;
26594;SDS011;14238;49.496;8.154;2023-03-23T10:21:35;1.47;;;1.47;;
26594;SDS011;14238;49.496;8.154;2023-03-23T10:24:08;1.30;;;1.20;;
26594;SDS011;14238;49.496;8.154;2023-03-23T10:29:28;1.30;;;1.30;;
26594;SDS011;14238;49.496;8.154;2023-03-23T10:32:15;1.40;;;1.40;;
26594;SDS011;14238;49.496;8.154;2023-03-23T10:34:58;1.77;;;1.50;;
26594;SDS011;14238;49.496;8.154;2023-03-23T10:37:29;1.40;;;1.30;;
26594;SDS011;14238;49.496;8.154;2023-03-23T10:39:58;1.83;;;1.73;;
26594;SDS011;14238;49.496;8.154;2023-03-23T10:42:30;1.47;;;1.40;;
26594;SDS011;14238;49.496;8.154;2023-03-23T10:44:58;1.20;;;1.20;;
26594;SDS011;14238;49.496;8.154;2023-03-23T10:47:25;1.20;;;1.20;;
26594;SDS011;14238;49.496;8.154;2023-03-23T10:50:02;1.37;;;1.30;;
26594;SDS011;14238;49.496;8.154;2023-03-23T10:52:40;1.60;;;1.60;;
26594;SDS011;14238;49.496;8.154;2023-03-23T10:55:14;1.37;;;1.27;;
26594;SDS011;14238;49.496;8.154;2023-03-23T10:57:43;1.10;;;1.10;;
26594;SDS011;14238;49.496;8.154;2023-03-23T11:02:44;2.77;;;1.20;;
26594;SDS011;14238;49.496;8.154;2023-03-23T11:05:26;1.20;;;1.20;;
26594;SDS011;14238;49.496;8.154;2023-03-23T11:08:13;1.07;;;1.07;;
26594;SDS011;14238;49.496;8.154;2023-03-23T11:10:42;1.00;;;1.00;;
26594;SDS011;14238;49.496;8.154;2023-03-23T11:13:16;1.43;;;1.37;;
26594;SDS011;14238;49.496;8.154;2023-03-23T11:15:43;1.27;;;1.27;;
26594;SDS011;14238;49.496;8.154;2023-03-23T11:18:21;1.30;;;1.30;;
26594;SDS011;14238;49.496;8.154;2023-03-23T11:20:49;1.20;;;1.20;;
26594;SDS011;14238;49.496;8.154;2023-03-23T11:23:28;1.33;;;1.23;;
26594;SDS011;14238;49.496;8.154;2023-03-23T11:28:48;1.27;;;1.17;;
26594;SDS011;14238;49.496;8.154;2023-03-23T11:31:38;1.17;;;1.17;;
26594;SDS011;14238;49.496;8.154;2023-03-23T11:34:10;0.83;;;0.83;;
26594;SDS011;14238;49.496;8.154;2023-03-23T11:36:47;0.90;;;0.90;;
26594;SDS011;14238;49.496;8.154;2023-03-23T11:39:31;1.10;;;1.00;;
26594;SDS011;14238;49.496;8.154;2023-03-23T11:42:17;0.80;;;0.80;;
26594;SDS011;14238;49.496;8.154;2023-03-23T11:44:45;1.03;;;1.03;;
26594;SDS011;14238;49.496;8.154;2023-03-23T11:50:20;1.63;;;1.63;;
26594;SDS011;14238;49.496;8.154;2023-03-23T11:58:14;1.10;;;1.00;;
26594;SDS011;14238;49.496;8.154;2023-03-23T12:00:43;1.40;;;1.30;;
26594;SDS011;14238;49.496;8.154;2023-03-23T12:03:16;1.30;;;1.20;;
26594;SDS011;14238;49.496;8.154;2023-03-23T12:05:49;1.23;;;1.10;;
26594;SDS011;14238;49.496;8.154;2023-03-23T12:08:49;0.80;;;0.80;;
26594;SDS011;14238;49.496;8.154;2023-03-23T12:14:54;1.17;;;1.17;;
26594;SDS011;14238;49.496;8.154;2023-03-23T12:17:33;1.13;;;1.10;;
26594;SDS011;14238;49.496;8.154;2023-03-23T12:23:05;1.23;;;1.23;;
26594;SDS011;14238;49.496;8.154;2023-03-23T12:31:36;1.27;;;1.13;;
26594;SDS011;14238;49.496;8.154;2023-03-23T12:51:25;1.23;;;1.00;;
26594;SDS011;14238;49.496;8.154;2023-03-23T12:53:58;1.10;;;1.00;;
26594;SDS011;14238;49.496;8.154;2023-03-23T12:56:47;1.03;;;1.03;;
26594;SDS011;14238;49.496;8.154;2023-03-23T13:02:03;1.47;;;1.37;;
26594;SDS011;14238;49.496;8.154;2023-03-23T13:04:42;1.10;;;1.10;;
26594;SDS011;14238;49.496;8.154;2023-03-23T13:07:12;1.50;;;1.40;;
26594;SDS011;14238;49.496;8.154;2023-03-23T13:10:00;1.80;;;0.90;;
26594;SDS011;14238;49.496;8.154;2023-03-23T13:12:31;0.90;;;0.90;;
26594;SDS011;14238;49.496;8.154;2023-03-23T13:17:36;0.97;;;0.97;;
26594;SDS011;14238;49.496;8.154;2023-03-23T13:22:54;0.97;;;0.97;;
26594;SDS011;14238;49.496;8.154;2023-03-23T13:28:29;1.00;;;1.00;;
26594;SDS011;14238;49.496;8.154;2023-03-23T13:33:25;1.20;;;1.20;;
26594;SDS011;14238;49.496;8.154;2023-03-23T13:35:54;1.10;;;1.10;;
26594;SDS011;14238;49.496;8.154;2023-03-23T13:38:24;0.83;;;0.83;;
26594;SDS011;14238;49.496;8.154;2023-03-23T13:40:53;1.60;;;1.20;;
26594;SDS011;14238;49.496;8.154;2023-03-23T13:43:27;1.33;;;1.23;;
26594;SDS011;14238;49.496;8.154;2023-03-23T13:45:55;0.90;;;0.90;;
26594;SDS011;14238;49.496;8.154;2023-03-23T13:48:42;1.27;;;1.00;;
26594;SDS011;14238;49.496;8.154;2023-03-23T13:56:40;1.00;;;0.90;;
26594;SDS011;14238;49.496;8.154;2023-03-23T13:59:32;1.20;;;1.20;;
26594;SDS011;14238;49.496;8.154;2023-03-23T14:06:01;1.43;;;1.33;;
26594;SDS011;14238;49.496;8.154;2023-03-23T14:08:01;1.50;;;1.40;;
26594;SDS011;14238;49.496;8.154;2023-03-23T14:10:34;1.50;;;1.40;;
26594;SDS011;14238;49.496;8.154;2023-03-23T14:13:03;1.30;;;1.30;;
26594;SDS011;14238;49.496;8.154;2023-03-23T14:15:57;1.50;;;1.40;;
26594;SDS011;14238;49.496;8.154;2023-03-23T14:18:48;1.43;;;1.37;;
26594;SDS011;14238;49.496;8.154;2023-03-23T14:21:31;1.40;;;1.30;;
26594;SDS011;14238;49.496;8.154;2023-03-23T14:24:04;1.70;;;1.23;;
26594;SDS011;14238;49.496;8.154;2023-03-23T14:26:42;1.27;;;1.23;;
26594;SDS011;14238;49.496;8.154;2023-03-23T14:29:10;1.13;;;1.13;;
26594;SDS011;14238;49.496;8.154;2023-03-23T14:31:37;1.50;;;1.40;;
26594;SDS011;14238;49.496;8.154;2023-03-23T14:34:11;1.40;;;1.30;;
26594;SDS011;14238;49.496;8.154;2023-03-23T14:36:45;1.40;;;1.30;;
26594;SDS011;14238;49.496;8.154;2023-03-23T14:41:41;1.43;;;1.40;;
26594;SDS011;14238;49.496;8.154;2023-03-23T14:44:10;1.60;;;1.50;;
26594;SDS011;14238;49.496;8.154;2023-03-23T14:46:40;1.60;;;1.50;;
26594;SDS011;14238;49.496;8.154;2023-03-23T14:49:11;1.20;;;1.10;;
26594;SDS011;14238;49.496;8.154;2023-03-23T14:51:51;1.30;;;1.20;;
26594;SDS011;14238;49.496;8.154;2023-03-23T14:54:22;1.60;;;1.50;;
26594;SDS011;14238;49.496;8.154;2023-03-23T14:56:53;1.30;;;1.20;;
26594;SDS011;14238;49.496;8.154;2023-03-23T14:59:19;1.00;;;1.00;;
26594;SDS011;14238;49.496;8.154;2023-03-23T15:01:46;1.10;;;1.10;;
26594;SDS011;14238;49.496;8.154;2023-03-23T15:04:16;1.90;;;1.50;;
26594;SDS011;14238;49.496;8.154;2023-03-23T15:06:50;1.40;;;1.30;;
26594;SDS011;14238;49.496;8.154;2023-03-23T15:09:20;1.30;;;1.20;;
26594;SDS011;14238;49.496;8.154;2023-03-23T15:11:54;1.27;;;1.27;;
26594;SDS011;14238;49.496;8.154;2023-03-23T15:14:25;1.20;;;1.10;;
26594;SDS011;14238;49.496;8.154;2023-03-23T15:16:56;2.30;;;1.40;;
26594;SDS011;14238;49.496;8.154;2023-03-23T15:19:34;1.63;;;1.17;;
26594;SDS011;14238;49.496;8.154;2023-03-23T15:22:13;1.43;;;1.43;;
26594;SDS011;14238;49.496;8.154;2023-03-23T15:24:44;1.23;;;1.23;;
26594;SDS011;14238;49.496;8.154;2023-03-23T15:29:50;1.00;;;1.00;;
26594;SDS011;14238;49.496;8.154;2023-03-23T15:32:25;2.60;;;1.60;;
26594;SDS011;14238;49.496;8.154;2023-03-23T15:34:51;1.47;;;1.47;;
26594;SDS011;14238;49.496;8.154;2023-03-23T15:37:24;1.30;;;1.30;;
26594;SDS011;14238;49.496;8.154;2023-03-23T15:39:52;1.53;;;1.47;;
26594;SDS011;14238;49.496;8.154;2023-03-23T15:42:21;1.40;;;1.40;;
26594;SDS011;14238;49.496;8.154;2023-03-23T15:45:02;1.57;;;1.47;;
26594;SDS011;14238;49.496;8.154;2023-03-23T15:47:36;1.50;;;1.50;;
26594;SDS011;14238;49.496;8.154;2023-03-23T15:52:38;1.40;;;1.40;;
26594;SDS011;14238;49.496;8.154;2023-03-23T15:55:27;1.83;;;1.57;;
26594;SDS011;14238;49.496;8.154;2023-03-23T15:57:53;1.57;;;1.47;;
26594;SDS011;14238;49.496;8.154;2023-03-23T16:00:20;3.37;;;1.30;;
26594;SDS011;14238;49.496;8.154;2023-03-23T16:02:49;1.60;;;1.50;;
26594;SDS011;14238;49.496;8.154;2023-03-23T16:05:19;1.63;;;1.53;;
26594;SDS011;14238;49.496;8.154;2023-03-23T16:07:45;1.80;;;1.70;;
26594;SDS011;14238;49.496;8.154;2023-03-23T16:10:15;2.13;;;2.03;;
26594;SDS011;14238;49.496;8.154;2023-03-23T16:12:45;1.53;;;1.40;;
26594;SDS011;14238;49.496;8.154;2023-03-23T16:15:11;1.33;;;1.33;;
26594;SDS011;14238;49.496;8.154;2023-03-23T16:17:37;2.10;;;2.00;;
26594;SDS011;14238;49.496;8.154;2023-03-23T16:20:10;1.50;;;1.50;;
26594;SDS011;14238;49.496;8.154;2023-03-23T16:22:38;1.63;;;1.53;;
26594;SDS011;14238;49.496;8.154;2023-03-23T16:25:03;1.43;;;1.43;;
26594;SDS011;14238;49.496;8.154;2023-03-23T16:27:29;1.77;;;1.67;;
26594;SDS011;14238;49.496;8.154;2023-03-23T16:29:55;1.70;;;1.60;;
26594;SDS011;14238;49.496;8.154;2023-03-23T16:32:21;2.17;;;2.07;;
26594;SDS011;14238;49.496;8.154;2023-03-23T16:34:47;2.37;;;2.20;;
26594;SDS011;14238;49.496;8.154;2023-03-23T16:37:12;2.40;;;2.20;;
26594;SDS011;14238;49.496;8.154;2023-03-23T16:39:38;1.83;;;1.73;;
26594;SDS011;14238;49.496;8.154;2023-03-23T16:42:03;2.07;;;1.97;;
26594;SDS011;14238;49.496;8.154;2023-03-23T16:44:29;3.80;;;3.50;;
26594;SDS011;14238;49.496;8.154;2023-03-23T16:46:54;2.10;;;2.00;;
26594;SDS011;14238;49.496;8.154;2023-03-23T16:49:20;2.60;;;2.50;;